sensor_id;sensor_type;location;lat;lon;timestamp;P1;durP1;ratioP1;P2;durP2;ratioP2
55148;SDS011;49539;48.160;11.530;2023-02-28T00:00:40;7.00;;;3.95;;
55148;SDS011;49539;48.160;11.530;2023-02-28T00:03:06;6.90;;;3.85;;
55148;SDS011;49539;48.160;11.530;2023-02-28T00:05:32;7.72;;;3.60;;
55148;SDS011;49539;48.160;11.530;2023-02-28T00:07:58;6.53;;;3.95;;
55148;SDS011;49539;48.160;11.530;2023-02-28T00:10:25;6.60;;;3.67;;
55148;SDS011;49539;48.160;11.530;2023-02-28T00:12:51;8.68;;;4.05;;
55148;SDS011;49539;48.160;11.530;2023-02-28T00:15:17;8.20;;;3.88;;
55148;SDS011;49539;48.160;11.530;2023-02-28T00:17:43;7.40;;;3.95;;
55148;SDS011;49539;48.160;11.530;2023-02-28T00:20:08;7.38;;;3.95;;
55148;SDS011;49539;48.160;11.530;2023-02-28T00:22:35;7.93;;;4.03;;
55148;SDS011;49539;48.160;11.530;2023-02-28T00:25:01;6.28;;;3.63;;
55148;SDS011;49539;48.160;11.530;2023-02-28T00:27:26;5.90;;;3.40;;
55148;SDS011;49539;48.160;11.530;2023-02-28T00:29:51;7.18;;;4.13;;
55148;SDS011;49539;48.160;11.530;2023-02-28T00:32:17;11.13;;;4.28;;
55148;SDS011;49539;48.160;11.530;2023-02-28T00:34:43;6.43;;;3.70;;
55148;SDS011;49539;48.160;11.530;2023-02-28T00:37:09;7.65;;;3.95;;
55148;SDS011;49539;48.160;11.530;2023-02-28T00:39:35;6.18;;;3.70;;
55148;SDS011;49539;48.160;11.530;2023-02-28T00:42:00;6.53;;;4.00;;
55148;SDS011;49539;48.160;11.530;2023-02-28T00:44:27;6.95;;;3.80;;
55148;SDS011;49539;48.160;11.530;2023-02-28T00:46:52;6.22;;;3.97;;
55148;SDS011;49539;48.160;11.530;2023-02-28T00:49:19;8.32;;;4.20;;
55148;SDS011;49539;48.160;11.530;2023-02-28T00:51:45;6.60;;;3.53;;
55148;SDS011;49539;48.160;11.530;2023-02-28T00:54:10;8.40;;;4.53;;
55148;SDS011;49539;48.160;11.530;2023-02-28T00:56:36;7.85;;;4.30;;
55148;SDS011;49539;48.160;11.530;2023-02-28T00:59:01;7.80;;;4.55;;
55148;SDS011;49539;48.160;11.530;2023-02-28T01:01:26;7.90;;;3.95;;
55148;SDS011;49539;48.160;11.530;2023-02-28T01:03:51;8.50;;;3.67;;
55148;SDS011;49539;48.160;11.530;2023-02-28T01:06:17;11.57;;;4.10;;
55148;SDS011;49539;48.160;11.530;2023-02-28T01:08:42;10.32;;;4.10;;
55148;SDS011;49539;48.160;11.530;2023-02-28T01:11:09;6.38;;;3.70;;
55148;SDS011;49539;48.160;11.530;2023-02-28T01:13:34;7.93;;;4.03;;
55148;SDS011;49539;48.160;11.530;2023-02-28T01:15:59;10.20;;;4.95;;
55148;SDS011;49539;48.160;11.530;2023-02-28T01:18:25;7.90;;;4.68;;
55148;SDS011;49539;48.160;11.530;2023-02-28T01:20:50;8.98;;;4.47;;
55148;SDS011;49539;48.160;11.530;2023-02-28T01:23:18;9.50;;;4.13;;
55148;SDS011;49539;48.160;11.530;2023-02-28T01:25:44;7.88;;;4.10;;
55148;SDS011;49539;48.160;11.530;2023-02-28T01:28:10;14.20;;;4.28;;
55148;SDS011;49539;48.160;11.530;2023-02-28T01:30:35;8.45;;;3.80;;
55148;SDS011;49539;48.160;11.530;2023-02-28T01:33:00;9.48;;;4.63;;
55148;SDS011;49539;48.160;11.530;2023-02-28T01:35:26;9.52;;;4.85;;
55148;SDS011;49539;48.160;11.530;2023-02-28T01:37:51;8.82;;;4.53;;
55148;SDS011;49539;48.160;11.530;2023-02-28T01:40:16;9.55;;;4.30;;
55148;SDS011;49539;48.160;11.530;2023-02-28T01:42:42;9.32;;;4.70;;
55148;SDS011;49539;48.160;11.530;2023-02-28T01:45:18;8.95;;;4.10;;
55148;SDS011;49539;48.160;11.530;2023-02-28T01:47:44;9.95;;;4.65;;
55148;SDS011;49539;48.160;11.530;2023-02-28T01:50:12;7.53;;;4.15;;
55148;SDS011;49539;48.160;11.530;2023-02-28T01:52:39;7.47;;;4.57;;
55148;SDS011;49539;48.160;11.530;2023-02-28T01:55:05;8.48;;;4.90;;
55148;SDS011;49539;48.160;11.530;2023-02-28T01:57:35;10.07;;;4.88;;
55148;SDS011;49539;48.160;11.530;2023-02-28T02:00:10;11.40;;;4.63;;
55148;SDS011;49539;48.160;11.530;2023-02-28T02:02:38;8.45;;;4.43;;
55148;SDS011;49539;48.160;11.530;2023-02-28T02:07:29;10.60;;;4.82;;
55148;SDS011;49539;48.160;11.530;2023-02-28T02:10:00;10.18;;;5.47;;
55148;SDS011;49539;48.160;11.530;2023-02-28T02:12:37;9.38;;;4.57;;
55148;SDS011;49539;48.160;11.530;2023-02-28T02:17:35;8.80;;;4.55;;
55148;SDS011;49539;48.160;11.530;2023-02-28T02:25:04;10.88;;;4.63;;
55148;SDS011;49539;48.160;11.530;2023-02-28T02:35:18;8.93;;;4.35;;
55148;SDS011;49539;48.160;11.530;2023-02-28T02:37:52;11.70;;;4.78;;
55148;SDS011;49539;48.160;11.530;2023-02-28T02:40:22;8.02;;;4.30;;
55148;SDS011;49539;48.160;11.530;2023-02-28T02:42:51;7.13;;;3.72;;
55148;SDS011;49539;48.160;11.530;2023-02-28T02:47:48;10.27;;;4.90;;
55148;SDS011;49539;48.160;11.530;2023-02-28T02:50:17;9.60;;;4.72;;
55148;SDS011;49539;48.160;11.530;2023-02-28T02:52:45;10.95;;;4.35;;
55148;SDS011;49539;48.160;11.530;2023-02-28T02:55:13;9.02;;;4.45;;
55148;SDS011;49539;48.160;11.530;2023-02-28T02:58:01;9.13;;;4.53;;
55148;SDS011;49539;48.160;11.530;2023-02-28T03:00:26;9.35;;;4.75;;
55148;SDS011;49539;48.160;11.530;2023-02-28T03:02:54;7.85;;;4.47;;
55148;SDS011;49539;48.160;11.530;2023-02-28T03:05:23;10.10;;;4.75;;
55148;SDS011;49539;48.160;11.530;2023-02-28T03:07:48;9.52;;;5.10;;
55148;SDS011;49539;48.160;11.530;2023-02-28T03:18:24;11.18;;;5.45;;
55148;SDS011;49539;48.160;11.530;2023-02-28T03:21:04;10.82;;;4.63;;
55148;SDS011;49539;48.160;11.530;2023-02-28T03:26:24;9.80;;;5.38;;
55148;SDS011;49539;48.160;11.530;2023-02-28T03:31:45;9.32;;;5.07;;
55148;SDS011;49539;48.160;11.530;2023-02-28T03:34:20;11.13;;;5.70;;
55148;SDS011;49539;48.160;11.530;2023-02-28T03:36:47;11.18;;;5.93;;
55148;SDS011;49539;48.160;11.530;2023-02-28T03:39:19;10.73;;;5.72;;
55148;SDS011;49539;48.160;11.530;2023-02-28T03:41:47;10.10;;;5.53;;
55148;SDS011;49539;48.160;11.530;2023-02-28T03:44:18;9.68;;;5.47;;
55148;SDS011;49539;48.160;11.530;2023-02-28T03:46:46;11.88;;;6.35;;
55148;SDS011;49539;48.160;11.530;2023-02-28T03:49:20;11.13;;;5.97;;
55148;SDS011;49539;48.160;11.530;2023-02-28T03:51:47;11.77;;;6.15;;
55148;SDS011;49539;48.160;11.530;2023-02-28T03:54:15;13.15;;;6.10;;
55148;SDS011;49539;48.160;11.530;2023-02-28T03:59:22;11.25;;;5.90;;
55148;SDS011;49539;48.160;11.530;2023-02-28T04:01:51;15.00;;;5.82;;
55148;SDS011;49539;48.160;11.530;2023-02-28T04:04:17;13.80;;;6.43;;
55148;SDS011;49539;48.160;11.530;2023-02-28T04:06:42;14.27;;;6.80;;
55148;SDS011;49539;48.160;11.530;2023-02-28T04:09:09;11.30;;;6.22;;
55148;SDS011;49539;48.160;11.530;2023-02-28T04:14:00;11.77;;;6.57;;
55148;SDS011;49539;48.160;11.530;2023-02-28T04:16:26;11.98;;;6.85;;
55148;SDS011;49539;48.160;11.530;2023-02-28T04:18:51;11.75;;;5.85;;
55148;SDS011;49539;48.160;11.530;2023-02-28T04:21:17;12.32;;;6.38;;
55148;SDS011;49539;48.160;11.530;2023-02-28T04:23:45;11.93;;;6.15;;
55148;SDS011;49539;48.160;11.530;2023-02-28T04:26:11;10.77;;;6.15;;
55148;SDS011;49539;48.160;11.530;2023-02-28T04:28:36;11.88;;;6.05;;
55148;SDS011;49539;48.160;11.530;2023-02-28T04:31:02;14.77;;;7.35;;
55148;SDS011;49539;48.160;11.530;2023-02-28T04:33:28;14.35;;;7.07;;
55148;SDS011;49539;48.160;11.530;2023-02-28T04:35:58;12.82;;;6.30;;
55148;SDS011;49539;48.160;11.530;2023-02-28T04:38:24;12.68;;;7.18;;
55148;SDS011;49539;48.160;11.530;2023-02-28T04:40:49;11.68;;;5.90;;
55148;SDS011;49539;48.160;11.530;2023-02-28T04:43:14;12.80;;;6.50;;
55148;SDS011;49539;48.160;11.530;2023-02-28T04:45:40;13.98;;;6.55;;
55148;SDS011;49539;48.160;11.530;2023-02-28T04:48:05;13.00;;;6.80;;
55148;SDS011;49539;48.160;11.530;2023-02-28T04:50:30;12.65;;;6.10;;
55148;SDS011;49539;48.160;11.530;2023-02-28T04:52:56;12.60;;;7.22;;
55148;SDS011;49539;48.160;11.530;2023-02-28T04:55:21;15.30;;;7.60;;
55148;SDS011;49539;48.160;11.530;2023-02-28T04:57:46;17.23;;;7.60;;
55148;SDS011;49539;48.160;11.530;2023-02-28T05:00:12;11.48;;;6.75;;
55148;SDS011;49539;48.160;11.530;2023-02-28T05:02:40;13.68;;;7.88;;
55148;SDS011;49539;48.160;11.530;2023-02-28T05:05:05;11.77;;;6.72;;
55148;SDS011;49539;48.160;11.530;2023-02-28T05:07:32;14.43;;;7.35;;
55148;SDS011;49539;48.160;11.530;2023-02-28T05:09:58;13.43;;;7.47;;
55148;SDS011;49539;48.160;11.530;2023-02-28T05:12:24;15.60;;;7.38;;
55148;SDS011;49539;48.160;11.530;2023-02-28T05:14:49;12.70;;;7.30;;
55148;SDS011;49539;48.160;11.530;2023-02-28T05:17:14;14.32;;;7.47;;
55148;SDS011;49539;48.160;11.530;2023-02-28T05:19:39;12.63;;;6.85;;
55148;SDS011;49539;48.160;11.530;2023-02-28T05:22:10;13.82;;;7.45;;
55148;SDS011;49539;48.160;11.530;2023-02-28T05:24:37;16.77;;;8.40;;
55148;SDS011;49539;48.160;11.530;2023-02-28T05:27:02;13.43;;;8.52;;
55148;SDS011;49539;48.160;11.530;2023-02-28T05:29:28;15.63;;;7.60;;
55148;SDS011;49539;48.160;11.530;2023-02-28T05:31:53;13.63;;;6.93;;
55148;SDS011;49539;48.160;11.530;2023-02-28T05:34:18;15.68;;;8.35;;
55148;SDS011;49539;48.160;11.530;2023-02-28T05:36:44;12.93;;;8.25;;
55148;SDS011;49539;48.160;11.530;2023-02-28T05:39:09;17.45;;;8.48;;
55148;SDS011;49539;48.160;11.530;2023-02-28T05:41:38;18.30;;;8.85;;
55148;SDS011;49539;48.160;11.530;2023-02-28T05:44:03;21.00;;;9.75;;
55148;SDS011;49539;48.160;11.530;2023-02-28T05:46:29;14.07;;;8.25;;
55148;SDS011;49539;48.160;11.530;2023-02-28T05:48:54;17.45;;;8.30;;
55148;SDS011;49539;48.160;11.530;2023-02-28T05:51:20;17.98;;;9.43;;
55148;SDS011;49539;48.160;11.530;2023-02-28T05:53:46;22.55;;;9.40;;
55148;SDS011;49539;48.160;11.530;2023-02-28T05:56:12;13.77;;;8.63;;
55148;SDS011;49539;48.160;11.530;2023-02-28T05:58:37;15.52;;;8.93;;
55148;SDS011;49539;48.160;11.530;2023-02-28T06:03:58;18.42;;;9.52;;
55148;SDS011;49539;48.160;11.530;2023-02-28T06:06:23;19.13;;;9.57;;
55148;SDS011;49539;48.160;11.530;2023-02-28T06:08:48;16.02;;;9.25;;
55148;SDS011;49539;48.160;11.530;2023-02-28T06:11:14;17.65;;;9.63;;
55148;SDS011;49539;48.160;11.530;2023-02-28T06:13:39;22.33;;;9.70;;
55148;SDS011;49539;48.160;11.530;2023-02-28T06:16:04;18.23;;;9.68;;
55148;SDS011;49539;48.160;11.530;2023-02-28T06:18:30;21.17;;;11.43;;
55148;SDS011;49539;48.160;11.530;2023-02-28T06:20:55;23.50;;;10.27;;
55148;SDS011;49539;48.160;11.530;2023-02-28T06:23:21;19.20;;;10.75;;
55148;SDS011;49539;48.160;11.530;2023-02-28T06:25:46;19.95;;;10.73;;
55148;SDS011;49539;48.160;11.530;2023-02-28T06:28:11;20.85;;;12.27;;
55148;SDS011;49539;48.160;11.530;2023-02-28T06:30:37;30.23;;;15.05;;
55148;SDS011;49539;48.160;11.530;2023-02-28T06:33:02;21.08;;;10.38;;
55148;SDS011;49539;48.160;11.530;2023-02-28T06:35:28;19.55;;;11.00;;
55148;SDS011;49539;48.160;11.530;2023-02-28T06:37:53;22.25;;;11.43;;
55148;SDS011;49539;48.160;11.530;2023-02-28T06:40:18;29.77;;;12.52;;
55148;SDS011;49539;48.160;11.530;2023-02-28T06:42:44;26.83;;;11.77;;
55148;SDS011;49539;48.160;11.530;2023-02-28T06:45:10;19.80;;;11.43;;
55148;SDS011;49539;48.160;11.530;2023-02-28T06:47:36;18.00;;;10.80;;
55148;SDS011;49539;48.160;11.530;2023-02-28T06:50:02;21.00;;;10.82;;
55148;SDS011;49539;48.160;11.530;2023-02-28T06:52:27;22.73;;;12.15;;
55148;SDS011;49539;48.160;11.530;2023-02-28T06:54:52;22.55;;;11.88;;
55148;SDS011;49539;48.160;11.530;2023-02-28T06:57:28;24.27;;;12.88;;
55148;SDS011;49539;48.160;11.530;2023-02-28T06:59:56;19.48;;;10.05;;
55148;SDS011;49539;48.160;11.530;2023-02-28T07:02:22;21.13;;;11.60;;
55148;SDS011;49539;48.160;11.530;2023-02-28T07:04:47;19.42;;;11.20;;
55148;SDS011;49539;48.160;11.530;2023-02-28T07:07:12;23.80;;;11.77;;
55148;SDS011;49539;48.160;11.530;2023-02-28T07:09:37;21.38;;;11.40;;
55148;SDS011;49539;48.160;11.530;2023-02-28T07:12:03;21.23;;;12.10;;
55148;SDS011;49539;48.160;11.530;2023-02-28T07:14:29;20.73;;;10.95;;
55148;SDS011;49539;48.160;11.530;2023-02-28T07:16:54;18.90;;;10.18;;
55148;SDS011;49539;48.160;11.530;2023-02-28T07:19:19;19.90;;;11.38;;
55148;SDS011;49539;48.160;11.530;2023-02-28T07:21:45;18.08;;;10.25;;
55148;SDS011;49539;48.160;11.530;2023-02-28T07:24:10;24.17;;;11.85;;
55148;SDS011;49539;48.160;11.530;2023-02-28T07:26:35;19.33;;;11.35;;
55148;SDS011;49539;48.160;11.530;2023-02-28T07:29:01;21.63;;;11.60;;
55148;SDS011;49539;48.160;11.530;2023-02-28T07:31:27;20.85;;;11.05;;
55148;SDS011;49539;48.160;11.530;2023-02-28T07:33:52;18.92;;;10.50;;
55148;SDS011;49539;48.160;11.530;2023-02-28T07:36:19;17.88;;;10.70;;
55148;SDS011;49539;48.160;11.530;2023-02-28T07:38:45;25.55;;;11.48;;
55148;SDS011;49539;48.160;11.530;2023-02-28T07:41:14;20.52;;;11.30;;
55148;SDS011;49539;48.160;11.530;2023-02-28T07:43:39;19.98;;;11.32;;
55148;SDS011;49539;48.160;11.530;2023-02-28T07:46:05;22.52;;;12.65;;
55148;SDS011;49539;48.160;11.530;2023-02-28T07:48:31;24.27;;;13.23;;
55148;SDS011;49539;48.160;11.530;2023-02-28T07:50:57;22.05;;;12.73;;
55148;SDS011;49539;48.160;11.530;2023-02-28T07:53:23;24.00;;;12.85;;
55148;SDS011;49539;48.160;11.530;2023-02-28T07:55:48;20.90;;;12.60;;
55148;SDS011;49539;48.160;11.530;2023-02-28T07:58:14;22.20;;;12.75;;
55148;SDS011;49539;48.160;11.530;2023-02-28T08:00:39;25.38;;;12.88;;
55148;SDS011;49539;48.160;11.530;2023-02-28T08:03:04;24.58;;;13.13;;
55148;SDS011;49539;48.160;11.530;2023-02-28T08:05:29;24.55;;;12.32;;
55148;SDS011;49539;48.160;11.530;2023-02-28T08:07:55;19.85;;;12.85;;
55148;SDS011;49539;48.160;11.530;2023-02-28T08:10:21;24.48;;;12.93;;
55148;SDS011;49539;48.160;11.530;2023-02-28T08:12:46;21.38;;;13.55;;
55148;SDS011;49539;48.160;11.530;2023-02-28T08:15:11;20.45;;;12.30;;
55148;SDS011;49539;48.160;11.530;2023-02-28T08:17:37;23.48;;;13.18;;
55148;SDS011;49539;48.160;11.530;2023-02-28T08:20:02;23.08;;;13.77;;
55148;SDS011;49539;48.160;11.530;2023-02-28T08:22:29;21.67;;;12.25;;
55148;SDS011;49539;48.160;11.530;2023-02-28T08:24:54;22.80;;;12.05;;
55148;SDS011;49539;48.160;11.530;2023-02-28T08:27:19;26.75;;;13.27;;
55148;SDS011;49539;48.160;11.530;2023-02-28T08:29:44;22.23;;;12.68;;
55148;SDS011;49539;48.160;11.530;2023-02-28T08:32:10;20.92;;;12.10;;
55148;SDS011;49539;48.160;11.530;2023-02-28T08:34:35;27.92;;;13.55;;
55148;SDS011;49539;48.160;11.530;2023-02-28T08:37:00;26.45;;;12.65;;
55148;SDS011;49539;48.160;11.530;2023-02-28T08:39:25;24.95;;;13.68;;
55148;SDS011;49539;48.160;11.530;2023-02-28T08:41:51;26.50;;;13.43;;
55148;SDS011;49539;48.160;11.530;2023-02-28T08:44:16;33.13;;;13.25;;
55148;SDS011;49539;48.160;11.530;2023-02-28T08:46:41;24.20;;;13.82;;
55148;SDS011;49539;48.160;11.530;2023-02-28T08:49:07;17.83;;;10.85;;
55148;SDS011;49539;48.160;11.530;2023-02-28T08:51:32;26.70;;;13.95;;
55148;SDS011;49539;48.160;11.530;2023-02-28T08:53:59;20.20;;;12.57;;
55148;SDS011;49539;48.160;11.530;2023-02-28T08:56:25;20.00;;;11.77;;
55148;SDS011;49539;48.160;11.530;2023-02-28T08:58:50;25.33;;;13.05;;
55148;SDS011;49539;48.160;11.530;2023-02-28T09:01:17;25.15;;;15.27;;
55148;SDS011;49539;48.160;11.530;2023-02-28T09:03:43;22.67;;;12.50;;
55148;SDS011;49539;48.160;11.530;2023-02-28T09:06:09;21.52;;;13.15;;
55148;SDS011;49539;48.160;11.530;2023-02-28T09:08:35;22.13;;;12.43;;
55148;SDS011;49539;48.160;11.530;2023-02-28T09:11:03;21.77;;;12.93;;
55148;SDS011;49539;48.160;11.530;2023-02-28T09:13:29;23.63;;;13.05;;
55148;SDS011;49539;48.160;11.530;2023-02-28T09:15:57;23.65;;;13.20;;
55148;SDS011;49539;48.160;11.530;2023-02-28T09:18:22;22.95;;;13.02;;
55148;SDS011;49539;48.160;11.530;2023-02-28T09:20:48;24.58;;;13.25;;
55148;SDS011;49539;48.160;11.530;2023-02-28T09:23:13;25.30;;;13.30;;
55148;SDS011;49539;48.160;11.530;2023-02-28T09:25:44;25.35;;;13.35;;
55148;SDS011;49539;48.160;11.530;2023-02-28T09:28:10;27.67;;;12.68;;
55148;SDS011;49539;48.160;11.530;2023-02-28T09:30:36;19.58;;;12.20;;
55148;SDS011;49539;48.160;11.530;2023-02-28T09:33:01;23.55;;;12.90;;
55148;SDS011;49539;48.160;11.530;2023-02-28T09:35:27;22.60;;;13.55;;
55148;SDS011;49539;48.160;11.530;2023-02-28T09:37:52;18.85;;;11.65;;
55148;SDS011;49539;48.160;11.530;2023-02-28T09:40:19;27.38;;;12.57;;
55148;SDS011;49539;48.160;11.530;2023-02-28T09:42:45;20.77;;;13.18;;
55148;SDS011;49539;48.160;11.530;2023-02-28T09:45:25;22.85;;;12.02;;
55148;SDS011;49539;48.160;11.530;2023-02-28T09:47:52;22.63;;;12.35;;
55148;SDS011;49539;48.160;11.530;2023-02-28T09:52:45;20.23;;;12.63;;
55148;SDS011;49539;48.160;11.530;2023-02-28T09:55:22;24.05;;;11.60;;
55148;SDS011;49539;48.160;11.530;2023-02-28T09:57:53;22.35;;;13.15;;
55148;SDS011;49539;48.160;11.530;2023-02-28T10:02:58;25.70;;;13.23;;
55148;SDS011;49539;48.160;11.530;2023-02-28T10:05:39;24.30;;;13.50;;
55148;SDS011;49539;48.160;11.530;2023-02-28T10:10:44;21.35;;;13.20;;
55148;SDS011;49539;48.160;11.530;2023-02-28T10:15:44;25.38;;;14.40;;
55148;SDS011;49539;48.160;11.530;2023-02-28T10:18:13;22.10;;;13.48;;
55148;SDS011;49539;48.160;11.530;2023-02-28T10:20:45;24.77;;;12.50;;
55148;SDS011;49539;48.160;11.530;2023-02-28T10:23:17;23.95;;;13.50;;
55148;SDS011;49539;48.160;11.530;2023-02-28T10:25:45;26.67;;;14.15;;
55148;SDS011;49539;48.160;11.530;2023-02-28T10:28:16;20.10;;;12.23;;
55148;SDS011;49539;48.160;11.530;2023-02-28T10:30:52;22.35;;;12.52;;
55148;SDS011;49539;48.160;11.530;2023-02-28T10:35:45;23.42;;;12.82;;
55148;SDS011;49539;48.160;11.530;2023-02-28T10:38:24;19.60;;;11.85;;
55148;SDS011;49539;48.160;11.530;2023-02-28T10:40:50;20.05;;;12.00;;
55148;SDS011;49539;48.160;11.530;2023-02-28T10:50:56;25.00;;;12.93;;
55148;SDS011;49539;48.160;11.530;2023-02-28T10:53:26;20.48;;;11.68;;
55148;SDS011;49539;48.160;11.530;2023-02-28T10:58:25;19.02;;;11.05;;
55148;SDS011;49539;48.160;11.530;2023-02-28T11:00:52;20.27;;;11.82;;
55148;SDS011;49539;48.160;11.530;2023-02-28T11:03:31;18.92;;;11.02;;
55148;SDS011;49539;48.160;11.530;2023-02-28T11:05:58;19.20;;;10.57;;
55148;SDS011;49539;48.160;11.530;2023-02-28T11:08:23;18.65;;;11.20;;
55148;SDS011;49539;48.160;11.530;2023-02-28T11:10:56;19.00;;;11.15;;
55148;SDS011;49539;48.160;11.530;2023-02-28T11:13:25;22.70;;;11.98;;
55148;SDS011;49539;48.160;11.530;2023-02-28T11:16:00;19.25;;;11.35;;
55148;SDS011;49539;48.160;11.530;2023-02-28T11:18:29;19.27;;;11.52;;
55148;SDS011;49539;48.160;11.530;2023-02-28T11:20:55;20.15;;;11.68;;
55148;SDS011;49539;48.160;11.530;2023-02-28T11:23:21;20.30;;;11.50;;
55148;SDS011;49539;48.160;11.530;2023-02-28T11:25:52;19.50;;;11.43;;
55148;SDS011;49539;48.160;11.530;2023-02-28T11:28:35;26.20;;;12.00;;
55148;SDS011;49539;48.160;11.530;2023-02-28T11:31:02;22.02;;;12.57;;
55148;SDS011;49539;48.160;11.530;2023-02-28T11:33:40;21.98;;;11.25;;
55148;SDS011;49539;48.160;11.530;2023-02-28T11:36:19;21.30;;;12.18;;
55148;SDS011;49539;48.160;11.530;2023-02-28T11:38:45;22.48;;;11.90;;
55148;SDS011;49539;48.160;11.530;2023-02-28T11:53:36;18.80;;;10.27;;
55148;SDS011;49539;48.160;11.530;2023-02-28T11:58:52;22.25;;;10.35;;
55148;SDS011;49539;48.160;11.530;2023-02-28T12:01:28;21.25;;;11.07;;
55148;SDS011;49539;48.160;11.530;2023-02-28T12:04:23;22.15;;;11.20;;
55148;SDS011;49539;48.160;11.530;2023-02-28T12:06:50;19.05;;;9.68;;
55148;SDS011;49539;48.160;11.530;2023-02-28T12:11:56;18.48;;;10.50;;
55148;SDS011;49539;48.160;11.530;2023-02-28T12:19:20;17.70;;;9.40;;
55148;SDS011;49539;48.160;11.530;2023-02-28T12:24:21;15.23;;;9.18;;
55148;SDS011;49539;48.160;11.530;2023-02-28T12:26:53;20.83;;;10.82;;
55148;SDS011;49539;48.160;11.530;2023-02-28T12:29:29;17.33;;;9.90;;
55148;SDS011;49539;48.160;11.530;2023-02-28T12:31:59;17.08;;;10.30;;
55148;SDS011;49539;48.160;11.530;2023-02-28T12:34:31;21.38;;;10.55;;
55148;SDS011;49539;48.160;11.530;2023-02-28T12:36:58;18.23;;;10.25;;
55148;SDS011;49539;48.160;11.530;2023-02-28T12:39:27;19.77;;;11.82;;
55148;SDS011;49539;48.160;11.530;2023-02-28T12:41:59;17.83;;;9.20;;
55148;SDS011;49539;48.160;11.530;2023-02-28T12:44:30;22.20;;;10.65;;
55148;SDS011;49539;48.160;11.530;2023-02-28T12:46:59;14.70;;;9.05;;
55148;SDS011;49539;48.160;11.530;2023-02-28T12:49:30;16.73;;;8.65;;
55148;SDS011;49539;48.160;11.530;2023-02-28T12:51:59;18.20;;;9.83;;
55148;SDS011;49539;48.160;11.530;2023-02-28T12:57:13;19.85;;;10.15;;
55148;SDS011;49539;48.160;11.530;2023-02-28T12:59:51;15.30;;;8.80;;
55148;SDS011;49539;48.160;11.530;2023-02-28T13:08:04;14.30;;;8.32;;
55148;SDS011;49539;48.160;11.530;2023-02-28T13:10:38;13.98;;;8.13;;
55148;SDS011;49539;48.160;11.530;2023-02-28T13:13:04;11.90;;;7.47;;
55148;SDS011;49539;48.160;11.530;2023-02-28T13:15:29;12.95;;;7.38;;
55148;SDS011;49539;48.160;11.530;2023-02-28T13:17:55;13.15;;;7.63;;
55148;SDS011;49539;48.160;11.530;2023-02-28T13:20:26;10.93;;;5.97;;
55148;SDS011;49539;48.160;11.530;2023-02-28T13:22:52;15.60;;;6.88;;
55148;SDS011;49539;48.160;11.530;2023-02-28T13:27:46;12.90;;;7.25;;
55148;SDS011;49539;48.160;11.530;2023-02-28T13:35:44;11.85;;;6.05;;
55148;SDS011;49539;48.160;11.530;2023-02-28T13:38:17;13.23;;;7.38;;
55148;SDS011;49539;48.160;11.530;2023-02-28T13:40:46;16.10;;;7.05;;
55148;SDS011;49539;48.160;11.530;2023-02-28T13:43:12;14.52;;;6.97;;
55148;SDS011;49539;48.160;11.530;2023-02-28T13:45:54;11.50;;;6.35;;
55148;SDS011;49539;48.160;11.530;2023-02-28T13:48:27;12.98;;;7.28;;
55148;SDS011;49539;48.160;11.530;2023-02-28T13:50:53;12.73;;;7.50;;
55148;SDS011;49539;48.160;11.530;2023-02-28T13:53:26;15.82;;;8.10;;
55148;SDS011;49539;48.160;11.530;2023-02-28T13:58:43;13.95;;;7.57;;
55148;SDS011;49539;48.160;11.530;2023-02-28T14:06:26;14.27;;;7.75;;
55148;SDS011;49539;48.160;11.530;2023-02-28T14:11:25;14.10;;;8.05;;
55148;SDS011;49539;48.160;11.530;2023-02-28T14:13:51;14.98;;;8.18;;
55148;SDS011;49539;48.160;11.530;2023-02-28T14:16:17;15.32;;;8.93;;
55148;SDS011;49539;48.160;11.530;2023-02-28T14:19:01;15.63;;;7.93;;
55148;SDS011;49539;48.160;11.530;2023-02-28T14:21:29;16.03;;;8.23;;
55148;SDS011;49539;48.160;11.530;2023-02-28T14:26:58;15.05;;;8.68;;
55148;SDS011;49539;48.160;11.530;2023-02-28T14:29:30;13.90;;;7.75;;
55148;SDS011;49539;48.160;11.530;2023-02-28T14:34:45;14.35;;;8.32;;
55148;SDS011;49539;48.160;11.530;2023-02-28T14:37:18;14.75;;;8.35;;
55148;SDS011;49539;48.160;11.530;2023-02-28T14:39:45;21.73;;;7.90;;
55148;SDS011;49539;48.160;11.530;2023-02-28T14:44:55;12.43;;;7.47;;
55148;SDS011;49539;48.160;11.530;2023-02-28T14:47:24;14.07;;;7.00;;
55148;SDS011;49539;48.160;11.530;2023-02-28T14:49:51;12.95;;;6.97;;
55148;SDS011;49539;48.160;11.530;2023-02-28T14:52:23;11.07;;;6.78;;
55148;SDS011;49539;48.160;11.530;2023-02-28T14:54:56;11.32;;;6.43;;
55148;SDS011;49539;48.160;11.530;2023-02-28T15:02:34;11.98;;;6.78;;
55148;SDS011;49539;48.160;11.530;2023-02-28T15:07:47;11.43;;;6.35;;
55148;SDS011;49539;48.160;11.530;2023-02-28T15:12:46;13.10;;;7.55;;
55148;SDS011;49539;48.160;11.530;2023-02-28T15:15:15;14.18;;;6.68;;
55148;SDS011;49539;48.160;11.530;2023-02-28T15:17:42;12.20;;;6.60;;
55148;SDS011;49539;48.160;11.530;2023-02-28T15:20:10;11.63;;;6.85;;
55148;SDS011;49539;48.160;11.530;2023-02-28T15:22:36;13.30;;;6.85;;
55148;SDS011;49539;48.160;11.530;2023-02-28T15:25:03;13.13;;;7.18;;
55148;SDS011;49539;48.160;11.530;2023-02-28T15:27:32;17.35;;;8.70;;
55148;SDS011;49539;48.160;11.530;2023-02-28T15:29:59;13.85;;;8.25;;
55148;SDS011;49539;48.160;11.530;2023-02-28T15:32:29;12.95;;;7.65;;
55148;SDS011;49539;48.160;11.530;2023-02-28T15:34:55;14.50;;;7.97;;
55148;SDS011;49539;48.160;11.530;2023-02-28T15:37:40;17.05;;;8.35;;
55148;SDS011;49539;48.160;11.530;2023-02-28T15:40:13;12.85;;;7.75;;
55148;SDS011;49539;48.160;11.530;2023-02-28T15:42:39;17.75;;;9.35;;
55148;SDS011;49539;48.160;11.530;2023-02-28T15:45:04;14.00;;;7.53;;
55148;SDS011;49539;48.160;11.530;2023-02-28T15:47:30;14.52;;;7.57;;
55148;SDS011;49539;48.160;11.530;2023-02-28T15:52:24;14.82;;;8.18;;
55148;SDS011;49539;48.160;11.530;2023-02-28T15:54:51;13.25;;;8.02;;
55148;SDS011;49539;48.160;11.530;2023-02-28T15:57:23;17.17;;;8.98;;
55148;SDS011;49539;48.160;11.530;2023-02-28T15:59:51;14.75;;;8.73;;
55148;SDS011;49539;48.160;11.530;2023-02-28T16:02:18;14.68;;;9.05;;
55148;SDS011;49539;48.160;11.530;2023-02-28T16:04:58;13.98;;;8.50;;
55148;SDS011;49539;48.160;11.530;2023-02-28T16:07:24;14.30;;;8.45;;
55148;SDS011;49539;48.160;11.530;2023-02-28T16:09:50;18.23;;;9.60;;
55148;SDS011;49539;48.160;11.530;2023-02-28T16:12:16;16.67;;;9.13;;
55148;SDS011;49539;48.160;11.530;2023-02-28T16:14:41;19.20;;;8.50;;
55148;SDS011;49539;48.160;11.530;2023-02-28T16:17:18;16.50;;;9.05;;
55148;SDS011;49539;48.160;11.530;2023-02-28T16:19:44;17.30;;;10.02;;
55148;SDS011;49539;48.160;11.530;2023-02-28T16:22:10;16.67;;;8.57;;
55148;SDS011;49539;48.160;11.530;2023-02-28T16:24:35;17.63;;;9.90;;
55148;SDS011;49539;48.160;11.530;2023-02-28T16:27:01;20.67;;;9.65;;
55148;SDS011;49539;48.160;11.530;2023-02-28T16:29:28;18.38;;;10.02;;
55148;SDS011;49539;48.160;11.530;2023-02-28T16:31:55;22.38;;;9.48;;
55148;SDS011;49539;48.160;11.530;2023-02-28T16:34:20;14.50;;;9.20;;
55148;SDS011;49539;48.160;11.530;2023-02-28T16:36:46;17.67;;;9.73;;
55148;SDS011;49539;48.160;11.530;2023-02-28T16:39:12;14.43;;;8.73;;